createdAt,value
2018-11-22T12:17:47.893Z,38.20
2018-11-22T12:20:21.528Z,40.73
2018-11-22T12:22:58.100Z,37.50
2018-11-22T12:25:36.926Z,37.03
2018-11-22T12:28:10.835Z,36.23
2018-11-22T12:30:48.531Z,37.57
2018-11-22T12:33:42.409Z,36.57
2018-11-22T12:36:27.169Z,35.80
2018-11-22T12:39:05.996Z,33.77
2018-11-22T12:44:36.114Z,36.33
2018-11-22T12:47:19.153Z,35.93
2018-11-22T12:50:02.277Z,38.30
2018-11-22T12:52:48.473Z,36.47
2018-11-22T12:55:28.526Z,37.93
2018-11-22T13:01:10.532Z,38.30
2018-11-22T13:03:49.981Z,37.70
2018-11-22T13:06:29.523Z,36.43
2018-11-22T13:09:11.929Z,37.07
2018-11-22T13:14:31.622Z,36.97
2018-11-22T13:24:54.939Z,36.23
2018-11-22T13:27:43.858Z,33.87
2018-11-22T13:30:28.862Z,36.57
2018-11-22T13:33:07.480Z,34.83
2018-11-22T13:35:51.115Z,35.33
2018-11-22T13:38:27.795Z,36.03
2018-11-22T13:41:04.769Z,38.27
2018-11-22T13:43:39.495Z,34.47
2018-11-22T13:46:16.582Z,35.47
2018-11-22T13:48:59.909Z,33.63
2018-11-22T13:51:38.932Z,34.03
2018-11-22T13:54:18.069Z,34.87
2018-11-22T13:56:54.114Z,34.53
2018-11-22T13:59:31.211Z,39.13
2018-11-22T14:02:09.932Z,35.63
2018-11-22T14:07:25.157Z,31.97
2018-11-22T14:10:00.876Z,31.70
2018-11-22T14:12:35.807Z,31.40
2018-11-22T14:15:14.939Z,32.43
2018-11-22T14:20:43.217Z,30.70
2018-11-22T14:23:21.958Z,32.90
2018-11-22T14:25:57.688Z,31.93
2018-11-22T14:28:48.004Z,31.70
2018-11-22T14:31:24.268Z,31.83
2018-11-22T14:34:05.860Z,33.40
2018-11-22T14:36:46.905Z,33.27
2018-11-22T14:39:24.733Z,32.67
2018-11-22T14:42:03.454Z,34.23
2018-11-22T14:44:43.671Z,33.33
2018-11-22T14:47:21.305Z,31.70
2018-11-22T14:50:06.767Z,32.43
2018-11-22T14:52:52.366Z,32.53
2018-11-22T14:55:27.605Z,34.63
2018-11-22T14:58:01.588Z,49.00
2018-11-22T15:00:37.870Z,38.50
2018-11-22T15:03:11.345Z,41.03
2018-11-22T15:05:46.305Z,34.03
2018-11-22T15:08:26.029Z,38.67
2018-11-22T15:11:14.098Z,79.60
2018-11-22T15:13:58.445Z,80.20
2018-11-22T15:16:34.206Z,130.33
2018-11-22T15:19:10.217Z,143.63
2018-11-22T15:21:45.658Z,137.73
2018-11-22T15:24:21.318Z,347.13
2018-11-22T15:26:58.143Z,413.10
2018-11-22T15:29:36.011Z,310.03
2018-11-22T15:32:33.668Z,153.10
2018-11-22T15:35:41.866Z,82.03
2018-11-22T15:38:24.273Z,137.00
2018-11-22T15:41:02.175Z,44.10
2018-11-22T15:43:38.741Z,30.07
2018-11-22T15:46:18.718Z,28.97
2018-11-22T15:49:08.777Z,27.03
2018-11-22T15:51:41.660Z,28.23
2018-11-22T15:54:17.205Z,31.00
2018-11-22T15:56:55.305Z,28.97
2018-11-22T15:59:39.771Z,30.50
2018-11-22T16:02:24.329Z,29.90
2018-11-22T16:05:01.919Z,27.23
2018-11-22T16:07:35.622Z,28.57
2018-11-22T16:10:15.164Z,29.13
2018-11-22T16:12:49.789Z,30.00
2018-11-22T16:15:28.916Z,27.57
2018-11-22T16:18:08.772Z,28.80
2018-11-22T16:20:42.874Z,30.30
2018-11-22T16:23:17.908Z,27.00
2018-11-22T16:25:56.936Z,37.30
2018-11-22T16:28:41.083Z,33.13
2018-11-22T16:31:24.029Z,34.07
2018-11-22T16:34:36.505Z,44.03
2018-11-22T16:37:18.512Z,41.77
2018-11-22T16:39:56.925Z,36.23
2018-11-22T16:42:43.393Z,31.00
2018-11-22T16:45:26.414Z,36.43
2018-11-22T16:48:11.624Z,28.27
2018-11-22T16:50:53.069Z,28.83
2018-11-22T16:53:29.062Z,28.87
2018-11-22T16:56:08.707Z,30.83
2018-11-22T16:58:45.683Z,29.33
2018-11-22T17:01:27.793Z,29.17
2018-11-22T17:04:02.105Z,28.33
2018-11-22T17:06:43.073Z,29.80
2018-11-22T17:09:22.719Z,30.83
2018-11-22T17:12:03.795Z,30.03
2018-11-22T17:14:43.587Z,30.17
2018-11-22T17:17:25.013Z,28.87
2018-11-22T17:20:03.434Z,29.93
2018-11-22T17:22:37.655Z,41.60
2018-11-22T17:25:15.043Z,44.77
2018-11-22T17:27:59.800Z,35.57
2018-11-22T17:30:43.339Z,24.53
2018-11-22T17:33:18.982Z,29.57
2018-11-22T17:35:58.395Z,29.20
2018-11-22T17:38:41.237Z,29.27
2018-11-22T17:41:22.823Z,29.10
2018-11-22T17:44:09.622Z,28.90
2018-11-22T17:46:46.008Z,31.73
2018-11-22T18:19:45.708Z,118.60
2018-11-22T18:22:39.891Z,49.30
2018-11-22T18:25:23.628Z,30.93
2018-11-22T18:28:17.200Z,34.53
2018-11-22T18:33:52.345Z,47.90
2018-11-22T18:36:29.218Z,34.47
2018-11-22T18:39:14.505Z,43.93
2018-11-22T18:41:50.256Z,38.17
2018-11-22T18:44:25.789Z,38.90
2018-11-22T18:47:01.645Z,33.30
2018-11-22T18:49:37.551Z,37.13
2018-11-22T18:52:19.498Z,33.33
2018-11-22T18:57:56.014Z,32.10
2018-11-22T19:00:27.249Z,26.80
2018-11-22T19:02:58.299Z,39.90
2018-11-22T19:05:28.215Z,47.07
2018-11-22T19:07:58.625Z,31.37
2018-11-22T19:10:30.829Z,37.07
2018-11-22T19:13:01.955Z,36.47
2018-11-22T19:15:32.996Z,38.57
2018-11-22T19:18:02.911Z,38.43
2018-11-22T19:20:34.213Z,34.87
2018-11-22T19:23:04.893Z,36.90
2018-11-22T19:25:34.726Z,39.77
2018-11-22T19:28:05.136Z,40.20
2018-11-22T19:30:38.642Z,37.33
2018-11-22T19:33:09.465Z,37.83
2018-11-22T19:35:40.989Z,38.77
2018-11-22T19:38:10.944Z,41.20
2018-11-22T19:40:41.573Z,39.60
2018-11-22T19:43:11.581Z,37.93
2018-11-22T19:45:43.889Z,41.27
2018-11-22T19:48:13.609Z,38.37
2018-11-22T19:50:43.388Z,41.10
2018-11-22T19:53:14.539Z,36.83
2018-11-22T19:55:44.684Z,37.27
2018-11-22T19:58:15.733Z,39.77
2018-11-22T20:00:45.445Z,37.93
2018-11-22T20:03:15.221Z,37.87
2018-11-22T20:05:45.239Z,38.03
2018-11-22T20:08:16.724Z,39.40
2018-11-22T20:10:47.007Z,38.00
2018-11-22T20:13:16.827Z,38.27
2018-11-22T20:15:46.535Z,38.63
2018-11-22T20:18:16.349Z,40.40
2018-11-22T20:20:50.015Z,43.93
2018-11-22T20:23:21.514Z,42.37
2018-11-22T20:25:45.466Z,39.87
2018-11-22T20:28:15.200Z,38.70
2018-11-22T20:30:45.756Z,44.47
2018-11-22T20:33:15.546Z,39.90
2018-11-22T20:35:45.261Z,42.90
2018-11-22T20:38:15.156Z,42.57
2018-11-22T20:40:44.837Z,42.60
2018-11-22T20:43:14.595Z,40.60
2018-11-22T20:45:44.301Z,42.30
2018-11-22T20:48:14.014Z,40.33
2018-11-22T20:50:43.750Z,40.40
2018-11-22T20:53:13.499Z,45.57
2018-11-22T20:55:43.238Z,46.30
2018-11-22T20:58:13.054Z,43.70
2018-11-22T21:00:42.865Z,43.50
2018-11-22T21:03:12.562Z,41.13
2018-11-22T21:05:42.394Z,40.57
2018-11-22T21:08:12.177Z,42.83
2018-11-22T21:10:41.913Z,41.80
2018-11-22T21:13:11.584Z,42.03
2018-11-22T21:15:41.373Z,43.93
2018-11-22T21:18:11.074Z,44.00
2018-11-22T21:20:41.870Z,41.20
2018-11-22T21:23:11.595Z,42.00
2018-11-22T21:25:41.406Z,42.73
2018-11-22T21:28:11.117Z,41.97
2018-11-22T21:30:41.121Z,39.37
2018-11-22T21:33:10.950Z,41.20
2018-11-22T21:35:40.702Z,40.73
2018-11-22T21:38:10.472Z,38.87
2018-11-22T21:40:40.183Z,39.50
2018-11-22T21:43:09.983Z,38.93
2018-11-22T21:45:39.649Z,41.97
2018-11-22T21:48:09.417Z,43.83
2018-11-22T21:50:39.089Z,37.63
2018-11-22T21:53:08.849Z,36.80
2018-11-22T21:55:38.554Z,39.13
2018-11-22T21:58:08.264Z,41.83
2018-11-22T22:00:40.514Z,38.63
2018-11-22T22:03:11.187Z,40.63
2018-11-22T22:05:41.386Z,41.03
2018-11-22T22:08:11.094Z,37.07
2018-11-22T22:10:41.012Z,40.33
2018-11-22T22:13:10.701Z,41.27
2018-11-22T22:15:40.403Z,38.60
2018-11-22T22:18:10.248Z,40.30
2018-11-22T22:20:39.959Z,40.17
2018-11-22T22:23:13.557Z,37.60
2018-11-22T22:25:39.422Z,38.33
2018-11-22T22:28:09.197Z,40.00
2018-11-22T22:30:39.006Z,43.50
2018-11-22T22:33:08.695Z,40.63
2018-11-22T22:35:38.427Z,45.20
2018-11-22T22:38:08.138Z,43.10
2018-11-22T22:40:37.905Z,39.17
2018-11-22T22:43:07.629Z,41.83
2018-11-22T22:45:37.376Z,39.67
2018-11-22T22:48:07.084Z,41.00
2018-11-22T22:50:36.794Z,44.27
2018-11-22T22:53:06.516Z,41.77
2018-11-22T22:55:36.225Z,41.13
2018-11-22T22:58:06.235Z,41.80
2018-11-22T23:00:41.482Z,39.13
2018-11-22T23:03:11.186Z,42.87
2018-11-22T23:05:40.899Z,41.17
2018-11-22T23:08:10.607Z,41.80
2018-11-22T23:10:40.300Z,42.83
2018-11-22T23:13:10.029Z,39.30
2018-11-22T23:15:39.739Z,40.60
2018-11-22T23:18:09.444Z,39.77
2018-11-22T23:20:39.150Z,39.93
2018-11-22T23:23:08.974Z,40.47
2018-11-22T23:25:38.641Z,42.73
2018-11-22T23:28:08.397Z,39.67
2018-11-22T23:30:38.105Z,39.53
2018-11-22T23:33:08.746Z,46.70
2018-11-22T23:35:38.554Z,41.87
2018-11-22T23:38:08.262Z,42.43
2018-11-22T23:40:37.974Z,43.70
2018-11-22T23:43:07.669Z,42.83
2018-11-22T23:45:37.498Z,41.13
2018-11-22T23:48:07.177Z,42.37
2018-11-22T23:50:36.876Z,45.93
2018-11-22T23:53:06.593Z,44.27
2018-11-22T23:55:36.342Z,44.20
2018-11-22T23:58:06.034Z,46.33
